Time;durP1;ratioP1;P1;durP2;ratioP2;P2;SDS_P1;SDS_P2;PMS_P1;PMS_P2;Temp;Humidity;BMP_temperature;BMP_pressure;BME280_temperature;BME280_humidity;BME280_pressure;Samples;Min_cycle;Max_cycle;Signal;HPM_P1;HPM_P2
2021/04/12 00:00:37;;;;;;;1.25;0.70;;;23.10;25.70;;;;;;5053457;28;20081;-55
2021/04/12 00:03:29;;;;;;;1.10;0.70;;;23.10;25.70;;;;;;5046957;28;20414;-55
2021/04/12 00:06:11;;;;;;;1.92;0.82;;;23.10;25.70;;;;;;5046967;28;20047;-52
2021/04/12 00:08:54;;;;;;;1.13;0.70;;;23.10;25.80;;;;;;5042578;28;20029;-58
2021/04/12 00:11:32;;;;;;;1.33;0.77;;;23.10;25.80;;;;;;5037487;28;20068;-54
2021/04/12 00:14:10;;;;;;;1.70;0.70;;;23.10;25.80;;;;;;5023577;28;20025;-59
2021/04/12 00:16:39;;;;;;;1.27;0.73;;;23.10;25.80;;;;;;5039934;28;20407;-55
2021/04/12 00:19:14;;;;;;;1.70;0.82;;;23.00;25.80;;;;;;5051777;28;20082;-55
2021/04/12 00:21:49;;;;;;;1.42;0.82;;;23.00;25.80;;;;;;5045080;28;20652;-52
2021/04/12 00:24:36;;;;;;;1.60;0.80;;;23.00;25.80;;;;;;5050380;28;20026;-55
2021/04/12 00:27:05;;;;;;;1.10;0.70;;;23.00;25.80;;;;;;5037230;28;20033;-55
2021/04/12 00:29:53;;;;;;;1.45;0.70;;;23.00;25.80;;;;;;5046435;28;20025;-56
2021/04/12 00:32:32;;;;;;;1.30;0.70;;;23.00;25.80;;;;;;5033175;28;20036;-51
2021/04/12 00:35:15;;;;;;;1.30;0.70;;;23.00;25.80;;;;;;5038660;28;20029;-56
2021/04/12 00:37:49;;;;;;;1.17;0.55;;;23.00;25.80;;;;;;5031654;28;20025;-52
2021/04/12 00:40:37;;;;;;;0.85;0.60;;;22.90;25.80;;;;;;5051037;28;20029;-56
2021/04/12 00:43:10;;;;;;;0.80;0.50;;;22.90;25.90;;;;;;5041721;28;20446;-56
2021/04/12 00:45:47;;;;;;;0.80;0.60;;;22.90;25.80;;;;;;5040647;28;20061;-56
2021/04/12 00:48:44;;;;;;;1.05;0.60;;;22.90;25.90;;;;;;5018003;28;20022;-53
2021/04/12 00:51:28;;;;;;;1.58;0.60;;;22.90;25.80;;;;;;5035869;28;20072;-52
2021/04/12 00:54:20;;;;;;;1.25;0.75;;;22.90;25.90;;;;;;5045684;28;20444;-55
2021/04/12 00:56:57;;;;;;;1.52;0.50;;;22.90;25.90;;;;;;5026405;28;20107;-53
2021/04/12 00:59:52;;;;;;;0.90;0.52;;;22.90;25.90;;;;;;5040102;28;20043;-55
2021/04/12 01:03:00;;;;;;;1.27;0.50;;;22.90;25.90;;;;;;5027009;28;20063;-53
2021/04/12 01:05:46;;;;;;;0.95;0.60;;;22.90;25.90;;;;;;5032422;28;20048;-58
2021/04/12 01:08:58;;;;;;;0.98;0.60;;;22.80;25.90;;;;;;5018155;28;20025;-56
2021/04/12 01:11:46;;;;;;;1.67;0.50;;;22.80;25.80;;;;;;5035123;28;20365;-52
2021/04/12 01:14:47;;;;;;;1.05;0.60;;;22.80;25.90;;;;;;5035525;28;20033;-54
2021/04/12 01:17:34;;;;;;;1.40;0.70;;;22.80;25.90;;;;;;5012010;28;20528;-55
2021/04/12 01:20:37;;;;;;;1.30;0.70;;;22.80;25.90;;;;;;5032455;28;20515;-56
2021/04/12 01:23:31;;;;;;;0.90;0.50;;;22.80;25.90;;;;;;5046034;28;20460;-57
2021/04/12 01:26:21;;;;;;;1.08;0.60;;;22.70;25.90;;;;;;5043960;28;20107;-56
2021/04/12 01:29:05;;;;;;;0.93;0.50;;;22.70;25.90;;;;;;5054539;28;20037;-56
2021/04/12 01:31:58;;;;;;;0.57;0.32;;;22.70;25.90;;;;;;5047440;28;20135;-54
2021/04/12 01:34:26;;;;;;;0.77;0.60;;;22.70;25.90;;;;;;5052759;28;20432;-59
2021/04/12 01:36:55;;;;;;;0.82;0.47;;;22.70;26.40;;;;;;5030971;28;20024;-57
2021/04/12 01:39:21;;;;;;;1.35;0.60;;;22.70;25.90;;;;;;5045587;28;20041;-54
2021/04/12 01:42:10;;;;;;;1.00;0.57;;;22.70;25.90;;;;;;5043808;28;20109;-56
2021/04/12 01:44:52;;;;;;;0.75;0.60;;;22.70;25.90;;;;;;5037438;28;20082;-55
2021/04/12 01:47:48;;;;;;;0.63;0.43;;;22.70;25.90;;;;;;5049230;28;20448;-52
2021/04/12 01:50:35;;;;;;;0.98;0.40;;;22.60;25.90;;;;;;5036165;28;20125;-50
2021/04/12 01:53:19;;;;;;;1.08;0.50;;;22.60;25.80;;;;;;5051348;28;20040;-56
2021/04/12 01:55:53;;;;;;;0.93;0.40;;;22.60;25.80;;;;;;5050586;28;20090;-53
2021/04/12 01:58:41;;;;;;;0.73;0.47;;;22.60;25.90;;;;;;5042193;28;20364;-54
2021/04/12 02:01:33;;;;;;;1.10;0.50;;;22.60;25.80;;;;;;5053530;28;20040;-54
2021/04/12 02:04:26;;;;;;;0.60;0.40;;;22.60;25.90;;;;;;5034181;28;20063;-51
2021/04/12 02:07:26;;;;;;;1.05;0.35;;;22.60;25.80;;;;;;5044684;28;20049;-54
2021/04/12 02:10:20;;;;;;;0.63;0.40;;;22.60;25.80;;;;;;4992377;28;20092;-54
2021/04/12 02:12:54;;;;;;;0.70;0.40;;;22.50;25.80;;;;;;5040282;28;20063;-54
2021/04/12 02:15:25;;;;;;;0.55;0.32;;;22.50;25.80;;;;;;5048735;28;20080;-52
2021/04/12 02:18:44;;;;;;;0.73;0.52;;;22.50;25.80;;;;;;5036240;28;20040;-56
2021/04/12 02:21:31;;;;;;;0.90;0.52;;;22.50;25.80;;;;;;5006519;28;20084;-55
2021/04/12 02:24:27;;;;;;;1.00;0.40;;;22.50;25.80;;;;;;5034219;28;20111;-56
2021/04/12 02:27:10;;;;;;;1.55;0.60;;;22.50;25.80;;;;;;5036608;28;20064;-51
2021/04/12 02:29:57;;;;;;;0.43;0.30;;;22.50;25.80;;;;;;5046389;28;20453;-51
2021/04/12 02:32:40;;;;;;;1.05;0.60;;;22.50;25.80;;;;;;5050617;28;20098;-56
2021/04/12 02:35:23;;;;;;;0.90;0.38;;;22.50;25.80;;;;;;5043587;28;20099;-57
2021/04/12 02:38:02;;;;;;;0.80;0.50;;;22.40;25.80;;;;;;5039072;28;20083;-50
2021/04/12 02:40:55;;;;;;;0.80;0.50;;;22.40;25.80;;;;;;5050700;28;20333;-52
2021/04/12 02:43:53;;;;;;;0.47;0.40;;;22.40;25.80;;;;;;5053699;28;20413;-56
2021/04/12 02:46:38;;;;;;;1.13;0.50;;;22.40;25.80;;;;;;5044964;28;20448;-56
2021/04/12 02:49:21;;;;;;;0.50;0.40;;;22.40;25.80;;;;;;5040725;28;20049;-55
2021/04/12 02:51:59;;;;;;;0.70;0.45;;;22.40;25.80;;;;;;5048680;28;20349;-55
2021/04/12 02:54:54;;;;;;;0.80;0.40;;;22.40;25.80;;;;;;5036437;28;20059;-52
2021/04/12 02:57:38;;;;;;;;;;;22.40;25.80;;;;;;5035381;28;20453;-52
2021/04/12 03:00:27;;;;;;;1.33;0.47;;;22.40;25.80;;;;;;5056737;28;20342;-53
2021/04/12 03:02:57;;;;;;;0.75;0.52;;;22.40;25.90;;;;;;5043978;28;20020;-53
2021/04/12 03:05:41;;;;;;;0.82;0.30;;;22.30;25.80;;;;;;5024644;28;20044;-53
2021/04/12 03:08:24;;;;;;;0.82;0.47;;;22.40;25.80;;;;;;5044072;28;20035;-56
2021/04/12 03:11:02;;;;;;;0.82;0.47;;;22.40;25.90;;;;;;5037482;28;20073;-53
2021/04/12 03:13:47;;;;;;;0.90;0.40;;;22.30;25.80;;;;;;5051568;28;20037;-52
2021/04/12 03:16:57;;;;;;;0.85;0.50;;;22.30;25.80;;;;;;5053646;28;20029;-54
2021/04/12 03:19:23;;;;;;;1.17;0.40;;;22.30;25.80;;;;;;4976228;28;20457;-54
2021/04/12 03:22:04;;;;;;;0.60;0.40;;;22.30;25.80;;;;;;5025129;28;20037;-52
2021/04/12 03:24:32;;;;;;;0.40;0.40;;;22.30;25.80;;;;;;5021481;28;20052;-54
2021/04/12 03:27:25;;;;;;;1.25;0.45;;;22.30;25.80;;;;;;5038390;28;20104;-57
2021/04/12 03:30:13;;;;;;;0.95;0.40;;;22.30;25.80;;;;;;5037402;28;20037;-53
2021/04/12 03:32:56;;;;;;;0.30;0.30;;;22.30;25.80;;;;;;5050180;28;20033;-57
2021/04/12 03:35:44;;;;;;;0.73;0.35;;;22.30;25.80;;;;;;5028415;28;20326;-53
2021/04/12 03:38:19;;;;;;;1.05;0.40;;;22.30;25.80;;;;;;5035291;28;20112;-58
2021/04/12 03:41:19;;;;;;;1.05;0.40;;;22.20;25.90;;;;;;5053190;28;20055;-56
2021/04/12 03:44:11;;;;;;;0.30;0.30;;;22.30;25.90;;;;;;5030042;28;20341;-55
2021/04/12 03:47:05;;;;;;;0.98;0.35;;;22.20;25.80;;;;;;5038144;28;20376;-54
2021/04/12 03:49:34;;;;;;;1.08;0.40;;;22.20;25.90;;;;;;5048914;28;20049;-56
2021/04/12 03:52:27;;;;;;;1.13;0.55;;;22.20;25.90;;;;;;5046536;28;20044;-55
2021/04/12 03:55:12;;;;;;;0.52;0.30;;;22.20;25.90;;;;;;5054131;28;20051;-57
2021/04/12 03:58:07;;;;;;;1.88;0.40;;;22.20;25.90;;;;;;5054310;28;20047;-57
2021/04/12 04:00:57;;;;;;;0.77;0.40;;;22.20;25.90;;;;;;5052542;28;20417;-53
2021/04/12 04:03:53;;;;;;;0.63;0.40;;;22.20;25.90;;;;;;5050623;28;20029;-53
2021/04/12 04:06:31;;;;;;;0.57;0.30;;;22.20;25.90;;;;;;5047751;28;20051;-55
2021/04/12 04:09:31;;;;;;;0.77;0.32;;;22.20;26.00;;;;;;5017425;28;20071;-52
2021/04/12 04:12:25;;;;;;;0.43;0.30;;;22.20;26.00;;;;;;5037379;28;20057;-58
2021/04/12 04:14:56;;;;;;;0.60;0.40;;;22.10;25.90;;;;;;5041399;28;20029;-54
2021/04/12 04:17:22;;;;;;;0.82;0.30;;;22.10;25.90;;;;;;5046966;28;20527;-52
2021/04/12 04:20:02;;;;;;;0.50;0.30;;;22.10;25.90;;;;;;5051990;28;20100;-56
2021/04/12 04:23:05;;;;;;;0.43;0.28;;;22.10;25.90;;;;;;5037129;28;20025;-54
2021/04/12 04:26:04;;;;;;;0.60;0.30;;;22.10;25.90;;;;;;5039319;28;20311;-52
2021/04/12 04:28:47;;;;;;;0.40;0.20;;;22.10;25.90;;;;;;5056140;28;20036;-53
2021/04/12 04:31:54;;;;;;;0.60;0.30;;;22.10;25.90;;;;;;5043057;28;20046;-53
2021/04/12 04:34:31;;;;;;;0.63;0.40;;;22.10;25.90;;;;;;5036119;28;20037;-59
2021/04/12 04:37:03;;;;;;;0.45;0.40;;;22.10;25.90;;;;;;5048170;28;20365;-53
2021/04/12 04:40:09;;;;;;;0.77;0.50;;;22.10;25.90;;;;;;5036052;28;20029;-49
2021/04/12 04:42:53;;;;;;;;;;;22.10;25.90;;;;;;5047654;28;20076;-56
2021/04/12 04:45:37;;;;;;;0.60;0.28;;;22.00;25.90;;;;;;5036108;28;19909;-53
2021/04/12 04:48:23;;;;;;;1.08;0.20;;;22.00;25.90;;;;;;5035940;28;20087;-52
2021/04/12 04:51:27;;;;;;;0.30;0.30;;;22.10;26.00;;;;;;5044761;28;20094;-59
2021/04/12 04:54:11;;;;;;;0.75;0.38;;;22.00;25.90;;;;;;4935901;29;20075;-55
2021/04/12 04:56:57;;;;;;;1.20;0.40;;;22.00;26.00;;;;;;5035538;28;20072;-57
2021/04/12 04:59:35;;;;;;;1.02;0.40;;;22.00;26.00;;;;;;5046393;28;20764;-55
2021/04/12 05:02:12;;;;;;;0.32;0.28;;;22.00;26.00;;;;;;5051714;28;20357;-55
2021/04/12 05:05:00;;;;;;;0.50;0.30;;;22.00;26.00;;;;;;5027300;28;20364;-53
2021/04/12 05:07:44;;;;;;;0.55;0.40;;;22.00;26.00;;;;;;5042343;28;20441;-57
2021/04/12 05:10:34;;;;;;;0.77;0.30;;;22.00;26.10;;;;;;5050951;28;20460;-55
2021/04/12 05:13:05;;;;;;;0.65;0.30;;;22.00;26.00;;;;;;5037029;28;20034;-53
2021/04/12 05:15:50;;;;;;;1.13;0.38;;;22.00;26.00;;;;;;5054605;28;20040;-54
2021/04/12 05:18:31;;;;;;;;;;;22.00;26.10;;;;;;5048100;28;20040;-53
2021/04/12 05:21:45;;;;;;;1.58;0.30;;;22.00;26.10;;;;;;5047345;28;20015;-56
2021/04/12 05:24:32;;;;;;;0.65;0.30;;;22.00;26.10;;;;;;5037562;28;20038;-57
2021/04/12 05:27:26;;;;;;;0.55;0.40;;;22.00;26.10;;;;;;5017368;28;20076;-55
2021/04/12 05:30:28;;;;;;;0.75;0.30;;;22.00;26.10;;;;;;5051507;28;20068;-52
2021/04/12 05:33:05;;;;;;;0.80;0.30;;;21.90;26.10;;;;;;5040138;28;20040;-53
2021/04/12 05:35:50;;;;;;;0.80;0.40;;;21.90;26.10;;;;;;5053846;28;20045;-52
2021/04/12 05:38:56;;;;;;;0.45;0.30;;;21.90;26.10;;;;;;5037182;28;20078;-53
2021/04/12 05:41:34;;;;;;;0.57;0.30;;;21.90;26.10;;;;;;4999927;28;20038;-53
2021/04/12 05:44:15;;;;;;;1.10;0.52;;;21.90;26.10;;;;;;5012030;28;20079;-48
2021/04/12 05:47:01;;;;;;;0.50;0.30;;;21.90;26.10;;;;;;5038092;28;20458;-55
2021/04/12 05:49:39;;;;;;;0.52;0.35;;;21.90;26.10;;;;;;5034965;28;20045;-53
2021/04/12 05:52:37;;;;;;;0.82;0.30;;;21.90;26.10;;;;;;5047610;28;20040;-55
2021/04/12 05:55:39;;;;;;;0.40;0.30;;;21.90;26.10;;;;;;5006518;28;20042;-57
2021/04/12 05:58:22;;;;;;;0.52;0.30;;;21.90;26.10;;;;;;5042083;28;20115;-55
2021/04/12 06:01:19;;;;;;;0.63;0.25;;;21.90;26.10;;;;;;5030853;28;20453;-57
2021/04/12 06:03:50;;;;;;;1.33;0.30;;;21.90;26.20;;;;;;5034368;28;20033;-52
2021/04/12 06:06:50;;;;;;;1.30;0.50;;;21.90;26.20;;;;;;5036064;28;20060;-55
2021/04/12 06:10:06;;;;;;;0.50;0.30;;;21.90;26.20;;;;;;5017893;28;20036;-55
2021/04/12 06:12:51;;;;;;;0.57;0.30;;;21.90;26.20;;;;;;5035119;28;20511;-57
2021/04/12 06:15:55;;;;;;;0.65;0.30;;;21.90;26.20;;;;;;5034407;28;20037;-51
2021/04/12 06:18:37;;;;;;;0.63;0.28;;;21.90;26.20;;;;;;5034074;28;20083;-50
2021/04/12 06:21:33;;;;;;;0.60;0.30;;;21.90;26.20;;;;;;5034222;28;20037;-54
2021/04/12 06:24:33;;;;;;;0.77;0.30;;;21.90;26.20;;;;;;5052824;28;20046;-52
2021/04/12 06:27:38;;;;;;;0.52;0.30;;;21.90;26.20;;;;;;5053108;28;20056;-53
2021/04/12 06:30:21;;;;;;;0.95;0.25;;;21.90;26.30;;;;;;4963189;28;20042;-52
2021/04/12 06:33:05;;;;;;;0.50;0.28;;;21.90;26.30;;;;;;5033170;28;20037;-57
2021/04/12 06:35:48;;;;;;;0.50;0.22;;;21.90;26.30;;;;;;5051430;28;20341;-55
2021/04/12 06:38:20;;;;;;;0.40;0.30;;;21.90;26.30;;;;;;5054509;28;20462;-52
2021/04/12 06:41:11;;;;;;;1.25;0.32;;;21.90;26.30;;;;;;5051514;28;20044;-55
2021/04/12 06:43:55;;;;;;;0.77;0.30;;;21.90;26.30;;;;;;5046981;28;20029;-57
2021/04/12 06:46:39;;;;;;;0.80;0.45;;;21.90;26.30;;;;;;5053931;28;20349;-55
2021/04/12 06:49:39;;;;;;;1.33;0.47;;;21.90;26.30;;;;;;5038673;28;20041;-50
2021/04/12 06:52:26;;;;;;;1.40;0.30;;;21.90;26.30;;;;;;5050731;28;20038;-57
2021/04/12 06:55:04;;;;;;;0.35;0.30;;;21.90;26.30;;;;;;5051324;28;20029;-56
2021/04/12 06:58:01;;;;;;;1.00;0.30;;;21.90;26.30;;;;;;5030558;28;20037;-53
2021/04/12 07:01:19;;;;;;;0.60;0.32;;;21.90;26.50;;;;;;5046257;28;20021;-57
2021/04/12 07:04:04;;;;;;;1.27;0.57;;;21.90;26.60;;;;;;5008915;28;20408;-56
2021/04/12 07:07:19;;;;;;;1.60;0.60;;;22.00;26.80;;;;;;5037509;28;20033;-58
2021/04/12 07:10:01;;;;;;;2.17;0.90;;;22.00;26.90;;;;;;5019665;28;20171;-55
2021/04/12 07:12:54;;;;;;;1.00;0.50;;;22.10;26.90;;;;;;5037870;28;20064;-50
2021/04/12 07:15:57;;;;;;;1.60;0.57;;;22.20;26.80;;;;;;5043118;28;20034;-50
2021/04/12 07:18:57;;;;;;;0.63;0.30;;;22.30;26.80;;;;;;5046677;28;20459;-54
2021/04/12 07:21:50;;;;;;;1.98;0.60;;;22.40;26.70;;;;;;5045050;28;20035;-49
2021/04/12 07:24:56;;;;;;;1.05;0.47;;;22.50;26.70;;;;;;5048588;28;20025;-53
2021/04/12 07:27:31;;;;;;;1.75;0.60;;;22.50;26.60;;;;;;5042553;28;20021;-51
2021/04/12 07:30:34;;;;;;;1.65;0.70;;;22.60;26.60;;;;;;5043464;28;20070;-50
2021/04/12 07:33:13;;;;;;;1.05;0.55;;;22.70;26.60;;;;;;4995598;28;20429;-55
2021/04/12 07:36:03;;;;;;;1.42;0.50;;;22.70;27.10;;;;;;5046645;28;20033;-52
2021/04/12 07:39:06;;;;;;;1.35;0.50;;;22.80;26.50;;;;;;5043970;28;20025;-56
2021/04/12 07:41:57;;;;;;;1.00;0.43;;;22.90;26.50;;;;;;5045101;28;20026;-53
2021/04/12 07:44:56;;;;;;;1.15;0.40;;;23.00;26.50;;;;;;5042525;28;20116;-54
2021/04/12 07:47:59;;;;;;;1.33;0.63;;;23.00;26.30;;;;;;5042890;28;20041;-53
2021/04/12 07:50:58;;;;;;;0.65;0.50;;;23.10;26.30;;;;;;5044291;28;20059;-51
2021/04/12 07:54:02;;;;;;;1.08;0.43;;;23.20;26.30;;;;;;5045546;28;20029;-50
2021/04/12 07:56:49;;;;;;;1.08;0.50;;;23.30;26.30;;;;;;5046039;28;20095;-52
2021/04/12 07:59:21;;;;;;;0.65;0.47;;;23.20;26.20;;;;;;5049229;28;20029;-50
2021/04/12 08:02:34;;;;;;;0.85;0.40;;;23.30;26.20;;;;;;5048455;28;20029;-54
2021/04/12 08:05:34;;;;;;;0.77;0.30;;;23.30;26.10;;;;;;4981357;28;20045;-53
2021/04/12 08:08:12;;;;;;;1.27;0.50;;;23.40;26.10;;;;;;5052765;28;20536;-56
2021/04/12 08:11:25;;;;;;;0.93;0.40;;;23.40;26.10;;;;;;5044038;28;20148;-55
2021/04/12 08:14:10;;;;;;;0.63;0.38;;;23.40;26.10;;;;;;5042264;28;20044;-54
2021/04/12 08:17:07;;;;;;;0.80;0.30;;;23.50;26.10;;;;;;5041364;28;20039;-51
2021/04/12 08:20:02;;;;;;;1.10;0.40;;;23.40;26.00;;;;;;5021155;28;20461;-53
2021/04/12 08:22:59;;;;;;;0.20;0.20;;;23.40;26.00;;;;;;5019302;28;20124;-54
2021/04/12 08:25:43;;;;;;;0.30;0.20;;;23.40;25.90;;;;;;5045768;28;20071;-51
2021/04/12 08:28:49;;;;;;;1.02;0.47;;;23.40;26.00;;;;;;5043171;28;20061;-52
2021/04/12 08:31:39;;;;;;;1.20;0.30;;;23.50;25.90;;;;;;5048437;28;20065;-57
2021/04/12 08:34:26;;;;;;;0.40;0.20;;;23.50;25.90;;;;;;5024858;28;20040;-52
2021/04/12 08:37:04;;;;;;;0.88;0.30;;;23.50;25.80;;;;;;5046841;28;20024;-50
2021/04/12 08:39:48;;;;;;;0.63;0.38;;;23.50;25.80;;;;;;5042269;28;20107;-53
2021/04/12 08:42:31;;;;;;;0.47;0.20;;;23.50;25.70;;;;;;5044633;28;20022;-49
2021/04/12 08:45:32;;;;;;;0.90;0.20;;;23.50;25.60;;;;;;5045781;28;20079;-50
2021/04/12 08:48:31;;;;;;;0.63;0.22;;;23.50;25.50;;;;;;5042284;28;20411;-49
2021/04/12 08:51:15;;;;;;;0.35;0.20;;;23.50;25.50;;;;;;5041809;28;20052;-52
2021/04/12 08:53:41;;;;;;;0.63;0.30;;;23.50;25.50;;;;;;5044011;28;20075;-55
2021/04/12 08:56:42;;;;;;;0.47;0.30;;;23.40;25.50;;;;;;5044016;28;20068;-50
2021/04/12 08:59:16;;;;;;;1.00;0.40;;;23.50;25.70;;;;;;5040721;28;20730;-58
2021/04/12 09:02:12;;;;;;;0.30;0.15;;;23.40;25.50;;;;;;5046562;28;20510;-52
2021/04/12 09:05:10;;;;;;;0.57;0.20;;;23.40;25.50;;;;;;5045131;28;20342;-51
2021/04/12 09:07:48;;;;;;;0.57;0.35;;;23.40;25.50;;;;;;4964658;28;20056;-48
2021/04/12 09:10:31;;;;;;;0.15;0.15;;;23.40;25.50;;;;;;5042874;28;20025;-56
2021/04/12 09:13:25;;;;;;;0.20;0.20;;;23.40;25.50;;;;;;5041914;28;20368;-57
2021/04/12 09:16:26;;;;;;;4.68;0.30;;;23.40;25.40;;;;;;5032417;28;20021;-49
2021/04/12 09:19:30;;;;;;;0.38;0.20;;;23.30;25.30;;;;;;5043019;28;20068;-50
2021/04/12 09:22:33;;;;;;;0.22;0.15;;;23.10;25.30;;;;;;5042149;28;20029;-49
2021/04/12 09:25:07;;;;;;;0.80;0.35;;;23.10;25.20;;;;;;5044270;28;20108;-57
2021/04/12 09:27:43;;;;;;;0.85;0.35;;;23.10;25.20;;;;;;5042522;28;20048;-53
2021/04/12 09:30:40;;;;;;;0.52;0.30;;;23.10;25.20;;;;;;5044153;28;20318;-54
2021/04/12 09:33:43;;;;;;;2.15;0.98;;;23.20;25.30;;;;;;5040652;28;20436;-52
2021/04/12 09:36:27;;;;;;;1.92;0.90;;;23.20;25.30;;;;;;5041956;28;20392;-54
2021/04/12 09:39:40;;;;;;;2.85;1.38;;;23.20;25.30;;;;;;5039359;28;20030;-54
2021/04/12 09:42:28;;;;;;;1.95;1.23;;;23.30;25.30;;;;;;5045371;28;20037;-53
2021/04/12 09:45:27;;;;;;;2.88;1.55;;;23.30;25.30;;;;;;5043089;28;20112;-53
2021/04/12 09:48:04;;;;;;;2.50;1.58;;;23.30;25.30;;;;;;5043780;28;20059;-54
2021/04/12 09:51:04;;;;;;;3.10;2.00;;;23.30;25.20;;;;;;5011247;28;20048;-56
2021/04/12 09:53:48;;;;;;;3.53;2.03;;;23.30;25.20;;;;;;5042072;28;20091;-50
2021/04/12 09:56:32;;;;;;;4.22;2.35;;;23.30;25.10;;;;;;5044042;28;20119;-57
2021/04/12 09:59:14;;;;;;;4.05;2.60;;;23.30;25.20;;;;;;5043019;28;20091;-52
2021/04/12 10:01:51;;;;;;;6.80;4.65;;;23.30;25.30;;;;;;5041554;28;20035;-58
2021/04/12 10:04:51;;;;;;;8.90;6.32;;;23.30;25.40;;;;;;5043168;28;20480;-50
2021/04/12 10:07:47;;;;;;;9.45;6.40;;;23.40;25.50;;;;;;5037138;28;20029;-55
2021/04/12 10:10:20;;;;;;;11.52;7.93;;;23.40;25.60;;;;;;5024313;28;20174;-57
2021/04/12 10:13:23;;;;;;;11.45;8.52;;;23.40;25.60;;;;;;5026660;28;20106;-53
2021/04/12 10:16:26;;;;;;;13.18;9.00;;;23.40;25.60;;;;;;5039704;28;20344;-49
2021/04/12 10:19:00;;;;;;;13.75;10.65;;;23.40;25.60;;;;;;5040518;28;20035;-54
2021/04/12 10:21:30;;;;;;;;;;;23.40;25.60;;;;;;5040344;28;20091;-56
2021/04/12 10:24:16;;;;;;;9.52;7.15;;;23.40;25.60;;;;;;5019247;28;20016;-50
2021/04/12 10:26:55;;;;;;;12.52;8.50;;;23.40;25.60;;;;;;5038589;28;21242;-56
2021/04/12 10:29:43;;;;;;;11.30;8.45;;;23.40;25.60;;;;;;5039947;28;20043;-47
2021/04/12 10:32:25;;;;;;;10.52;7.72;;;23.40;25.70;;;;;;5041869;28;20041;-53
2021/04/12 10:35:06;;;;;;;11.23;7.93;;;23.50;25.90;;;;;;5039361;28;20041;-52
2021/04/12 10:37:39;;;;;;;14.13;9.52;;;23.50;26.00;;;;;;5040789;28;20111;-47
2021/04/12 10:40:16;;;;;;;13.73;10.50;;;23.50;26.00;;;;;;5038475;28;20431;-47
2021/04/12 10:43:19;;;;;;;16.40;11.23;;;23.60;26.20;;;;;;5041800;28;20025;-48
2021/04/12 10:45:54;;;;;;;19.17;11.63;;;23.60;26.30;;;;;;5021153;28;20103;-53
2021/04/12 10:48:28;;;;;;;14.50;11.90;;;23.60;26.30;;;;;;5038664;28;20021;-55
2021/04/12 10:51:03;;;;;;;;;;;23.60;26.20;;;;;;5040647;28;20046;-54
2021/04/12 10:53:53;;;;;;;14.32;10.35;;;23.70;26.20;;;;;;5041433;28;20324;-49
2021/04/12 10:56:36;;;;;;;13.43;9.95;;;23.70;26.00;;;;;;5040928;28;20033;-50
2021/04/12 10:59:44;;;;;;;12.88;9.77;;;23.70;25.90;;;;;;5039628;28;20030;-53
2021/04/12 11:02:33;;;;;;;13.05;9.98;;;23.70;25.80;;;;;;5042885;28;20107;-55
2021/04/12 11:05:05;;;;;;;14.93;11.13;;;23.70;25.70;;;;;;5038711;28;21406;-54
2021/04/12 11:08:07;;;;;;;16.30;11.90;;;23.70;25.70;;;;;;5026842;28;20025;-53
2021/04/12 11:10:54;;;;;;;16.17;12.40;;;23.60;25.60;;;;;;5039538;28;20115;-50
2021/04/12 11:13:29;;;;;;;17.88;13.70;;;23.70;25.70;;;;;;5039581;28;20065;-54
2021/04/12 11:16:05;;;;;;;20.65;15.20;;;23.70;25.70;;;;;;5040864;28;20032;-57
2021/04/12 11:19:01;;;;;;;23.70;17.67;;;23.70;25.70;;;;;;5040084;28;20059;-55
2021/04/12 11:21:51;;;;;;;24.98;18.92;;;23.70;25.70;;;;;;5044066;28;20066;-58
2021/04/12 11:24:20;;;;;;;26.88;20.80;;;23.70;25.80;;;;;;5045899;28;20029;-52
2021/04/12 11:27:24;;;;;;;25.38;19.48;;;23.70;25.90;;;;;;5043423;28;20033;-56
2021/04/12 11:30:01;;;;;;;29.55;20.58;;;23.70;25.80;;;;;;5022673;28;20036;-51
2021/04/12 11:32:42;;;;;;;26.33;19.98;;;23.70;25.80;;;;;;5028162;28;20353;-52
2021/04/12 11:35:13;;;;;;;25.17;19.40;;;23.70;25.80;;;;;;5048055;28;20021;-55
2021/04/12 11:37:51;;;;;;;24.85;17.60;;;23.70;25.80;;;;;;5048670;28;20061;-54
2021/04/12 11:40:30;;;;;;;26.27;19.17;;;23.80;25.70;;;;;;5041333;28;20025;-55
2021/04/12 11:43:01;;;;;;;35.40;20.98;;;23.80;25.70;;;;;;5046418;28;20029;-52
2021/04/12 11:45:40;;;;;;;29.08;21.50;;;23.80;25.70;;;;;;5037546;28;20049;-56
2021/04/12 11:48:14;;;;;;;30.40;23.40;;;23.80;25.70;;;;;;5050990;28;20041;-53
2021/04/12 11:50:59;;;;;;;32.83;23.63;;;23.80;25.70;;;;;;5047275;28;20053;-55
2021/04/12 11:53:28;;;;;;;32.72;23.77;;;23.80;25.70;;;;;;5020278;28;20491;-51
2021/04/12 11:55:59;;;;;;;30.02;23.25;;;23.70;25.70;;;;;;5050576;28;20048;-51
2021/04/12 11:58:37;;;;;;;34.05;24.60;;;23.80;25.80;;;;;;5023897;28;20024;-57
2021/04/12 12:01:28;;;;;;;27.00;21.27;;;23.80;25.70;;;;;;5045136;28;20036;-51
2021/04/12 12:04:14;;;;;;;28.13;21.67;;;23.80;25.70;;;;;;5002934;28;20365;-58
2021/04/12 12:06:49;;;;;;;29.50;22.85;;;23.80;25.70;;;;;;5045697;28;20025;-55
2021/04/12 12:09:35;;;;;;;31.50;23.63;;;23.70;25.70;;;;;;5046295;28;20132;-57
2021/04/12 12:12:16;;;;;;;31.13;23.20;;;23.80;25.70;;;;;;5047652;28;20139;-52
2021/04/12 12:15:03;;;;;;;30.95;22.55;;;23.80;25.70;;;;;;5043201;28;20123;-52
2021/04/12 12:18:05;;;;;;;29.70;22.13;;;23.80;25.70;;;;;;5049394;28;20116;-52
2021/04/12 12:20:43;;;;;;;30.10;22.30;;;23.70;25.70;;;;;;5029652;28;20069;-60
2021/04/12 12:23:31;;;;;;;29.77;22.13;;;23.70;25.70;;;;;;5040648;28;20017;-56
2021/04/12 12:26:00;;;;;;;28.05;20.23;;;23.70;25.60;;;;;;5041146;28;20518;-53
2021/04/12 12:28:41;;;;;;;28.65;20.35;;;23.70;25.60;;;;;;5041608;28;20017;-54
2021/04/12 12:31:33;;;;;;;25.60;19.05;;;23.60;25.40;;;;;;5045827;28;20040;-53
2021/04/12 12:34:23;;;;;;;21.92;16.80;;;23.70;25.40;;;;;;5046374;28;20536;-53
2021/04/12 12:37:03;;;;;;;21.08;16.23;;;23.60;25.30;;;;;;5042919;28;20047;-55
2021/04/12 12:39:41;;;;;;;18.50;14.38;;;23.60;25.30;;;;;;5039466;28;20033;-53
2021/04/12 12:42:21;;;;;;;21.15;15.65;;;23.60;25.30;;;;;;5045199;28;20040;-50
2021/04/12 12:44:48;;;;;;;23.42;17.52;;;23.60;25.50;;;;;;5049148;28;20036;-56
2021/04/12 12:47:19;;;;;;;27.67;18.85;;;23.60;25.70;;;;;;5044020;28;20049;-51
2021/04/12 12:49:49;;;;;;;24.27;18.92;;;23.60;26.00;;;;;;5039236;28;20056;-45
2021/04/12 12:52:31;;;;;;;29.02;21.98;;;23.70;26.20;;;;;;5042642;28;20033;-58
2021/04/12 12:55:01;;;;;;;30.75;23.40;;;23.70;26.50;;;;;;5039645;28;20102;-57
2021/04/12 12:57:37;;;;;;;34.22;23.50;;;23.70;26.60;;;;;;5037664;28;20049;-51
2021/04/12 13:00:19;;;;;;;33.75;24.63;;;23.80;26.70;;;;;;5010982;28;20379;-60
2021/04/12 13:02:46;;;;;;;31.33;24.02;;;23.80;26.70;;;;;;5034972;28;20021;-56
2021/04/12 13:05:22;;;;;;;33.47;25.67;;;23.80;26.70;;;;;;5019452;28;20105;-54
2021/04/12 13:07:49;;;;;;;33.97;24.98;;;23.80;26.70;;;;;;5045346;28;20605;-56
2021/04/12 13:10:26;;;;;;;31.35;24.00;;;23.80;26.70;;;;;;5036979;28;20033;-57
2021/04/12 13:12:53;;;;;;;26.50;19.92;;;23.80;26.70;;;;;;5047842;28;20064;-53
2021/04/12 13:15:37;;;;;;;22.17;16.25;;;23.80;26.60;;;;;;5030034;28;20041;-55
2021/04/12 13:18:20;;;;;;;20.02;13.90;;;23.80;26.40;;;;;;5042470;28;20363;-50
2021/04/12 13:21:11;;;;;;;15.27;11.73;;;23.80;26.30;;;;;;5048498;28;20021;-56
2021/04/12 13:23:58;;;;;;;13.10;9.65;;;23.80;26.20;;;;;;5040723;28;20112;-49
2021/04/12 13:26:31;;;;;;;13.77;9.27;;;23.70;26.00;;;;;;5038926;28;20400;-56
2021/04/12 13:29:05;;;;;;;11.55;7.90;;;23.70;26.00;;;;;;5037788;28;20120;-51
2021/04/12 13:31:39;;;;;;;10.77;7.82;;;23.70;26.10;;;;;;5041769;28;20047;-51
2021/04/12 13:34:19;;;;;;;;;;;23.70;26.10;;;;;;5049694;28;20456;-55
2021/04/12 13:36:56;;;;;;;9.23;6.15;;;23.60;26.10;;;;;;5036195;28;19909;-59
2021/04/12 13:39:48;;;;;;;9.55;6.15;;;23.70;26.00;;;;;;5039408;28;20060;-53
2021/04/12 13:42:17;;;;;;;11.68;7.70;;;23.70;26.00;;;;;;5026466;28;20334;-52
2021/04/12 13:44:46;;;;;;;15.50;11.45;;;23.70;26.00;;;;;;5045935;28;20033;-47
2021/04/12 13:47:20;;;;;;;19.98;14.18;;;23.70;26.20;;;;;;5034974;28;20057;-56
2021/04/12 13:49:56;;;;;;;22.45;15.57;;;23.80;26.40;;;;;;5027390;28;20049;-50
2021/04/12 13:52:28;;;;;;;23.33;16.67;;;23.80;26.60;;;;;;5039494;28;20037;-50
2021/04/12 13:55:06;;;;;;;25.83;18.65;;;23.90;26.80;;;;;;5036330;28;20040;-49
2021/04/12 13:57:55;;;;;;;25.80;18.23;;;23.90;27.00;;;;;;5038656;28;20357;-53
2021/04/12 14:00:32;;;;;;;24.05;17.23;;;23.90;27.00;;;;;;5053417;28;20032;-52
2021/04/12 14:03:00;;;;;;;26.67;18.67;;;23.90;27.00;;;;;;5037385;28;20044;-53
2021/04/12 14:05:30;;;;;;;26.73;20.38;;;24.00;27.00;;;;;;5034601;28;20098;-50
2021/04/12 14:08:22;;;;;;;30.38;21.25;;;24.00;27.00;;;;;;5024065;28;20032;-49
2021/04/12 14:10:52;;;;;;;27.52;20.48;;;24.00;27.10;;;;;;5016445;28;20037;-48
2021/04/12 14:13:23;;;;;;;29.88;20.92;;;24.00;27.10;;;;;;5037572;28;20036;-48
2021/04/12 14:16:06;;;;;;;27.90;20.63;;;24.00;27.10;;;;;;5021681;28;20432;-49
2021/04/12 14:18:39;;;;;;;28.25;20.27;;;24.00;27.10;;;;;;5035726;28;20033;-50